Time;durP1;ratioP1;P1;durP2;ratioP2;P2;SDS_P1;SDS_P2;PMS_P1;PMS_P2;Temp;Humidity;BMP_temperature;BMP_pressure;BME280_temperature;BME280_humidity;BME280_pressure;Samples;Min_cycle;Max_cycle;Signal;HPM_P1;HPM_P2
2022/05/06 00:01:00;;;;;;;;;;;25.10;37.70;;;;;;5049874;28;20069;-71
2022/05/06 00:03:27;;;;;;;;;;;25.10;37.70;;;;;;5050525;28;19928;-71
2022/05/06 00:05:54;;;;;;;;;;;25.10;37.70;;;;;;5059624;28;20471;-71
2022/05/06 00:08:22;;;;;;;;;;;25.10;37.70;;;;;;5069827;28;19924;-71
2022/05/06 00:10:49;;;;;;;;;;;25.10;37.70;;;;;;5069744;28;20065;-71
2022/05/06 00:13:16;;;;;;;;;;;25.10;37.70;;;;;;5069437;28;19924;-71
2022/05/06 00:15:43;;;;;;;;;;;25.10;37.70;;;;;;5069674;28;19932;-71
2022/05/06 00:18:10;;;;;;;;;;;25.10;37.70;;;;;;5069676;28;20382;-71
2022/05/06 00:20:37;;;;;;;;;;;25.10;37.70;;;;;;5069824;28;19990;-71
2022/05/06 00:23:04;;;;;;;;;;;25.10;37.70;;;;;;5069752;28;19932;-71
2022/05/06 00:25:31;;;;;;;;;;;25.10;37.80;;;;;;5069853;28;20330;-71
2022/05/06 00:27:58;;;;;;;;;;;25.10;37.70;;;;;;5069794;28;20442;-71
2022/05/06 00:30:25;;;;;;;;;;;25.10;37.70;;;;;;5067765;28;19924;-71
2022/05/06 00:32:52;;;;;;;;;;;25.10;37.80;;;;;;5069215;28;19929;-71
2022/05/06 00:35:19;;;;;;;;;;;25.10;37.80;;;;;;5069480;28;20146;-71
2022/05/06 00:37:46;;;;;;;;;;;25.10;37.80;;;;;;5064515;28;20328;-71
2022/05/06 00:40:16;;;;;;;;;;;25.10;37.80;;;;;;5069289;28;19932;-71
2022/05/06 00:42:43;;;;;;;;;;;25.10;37.90;;;;;;5069186;28;19924;-71
2022/05/06 00:45:10;;;;;;;;;;;25.10;37.90;;;;;;5069102;28;19924;-71
2022/05/06 00:47:37;;;;;;;;;;;25.10;37.80;;;;;;5069454;28;20096;-71
2022/05/06 00:50:04;;;;;;;;;;;25.10;37.90;;;;;;5066600;28;19925;-71
2022/05/06 00:52:31;;;;;;;;;;;25.00;37.80;;;;;;5101730;28;20426;-71
2022/05/06 00:54:59;;;;;;;;;;;25.00;37.80;;;;;;5069021;28;19928;-71
2022/05/06 00:57:26;;;;;;;;;;;25.10;37.90;;;;;;5069249;28;19978;-71
2022/05/06 01:02:40;;;;;;;;;;;25.00;37.90;;;;;;5068897;28;20001;-71
2022/05/06 01:05:09;;;;;;;;;;;25.00;37.90;;;;;;5068842;28;20056;-71
2022/05/06 01:07:36;;;;;;;;;;;25.00;37.90;;;;;;5063977;28;19951;-72
2022/05/06 01:10:03;;;;;;;;;;;25.00;37.90;;;;;;5066782;28;19928;-71
2022/05/06 01:12:30;;;;;;;;;;;25.00;37.90;;;;;;5069182;28;20400;-71
2022/05/06 01:14:57;;;;;;;;;;;25.00;37.90;;;;;;5068858;28;20331;-71
2022/05/06 01:17:24;;;;;;;;;;;25.00;37.90;;;;;;5068976;28;20318;-71
2022/05/06 01:19:52;;;;;;;;;;;25.00;37.90;;;;;;5069136;28;19930;-71
2022/05/06 01:22:19;;;;;;;;;;;25.00;37.90;;;;;;5070344;28;19960;-71
2022/05/06 01:24:46;;;;;;;;;;;25.00;37.90;;;;;;5069521;28;19928;-71
2022/05/06 01:27:20;;;;;;;;;;;25.00;37.90;;;;;;5068638;28;20292;-71
2022/05/06 01:29:48;;;;;;;;;;;25.00;37.90;;;;;;5068769;28;19942;-71
2022/05/06 01:32:17;;;;;;;;;;;25.00;37.90;;;;;;5066810;28;19924;-71
2022/05/06 01:34:45;;;;;;;;;;;25.00;37.90;;;;;;5068980;28;20407;-71
2022/05/06 01:37:13;;;;;;;;;;;25.00;37.90;;;;;;5068905;28;19928;-71
2022/05/06 01:39:42;;;;;;;;;;;25.00;37.90;;;;;;5063439;28;19929;-71
2022/05/06 01:42:12;;;;;;;;;;;25.00;37.90;;;;;;5068333;28;19924;-71
2022/05/06 01:44:41;;;;;;;;;;;25.00;38.00;;;;;;5068779;28;19970;-71
2022/05/06 01:47:12;;;;;;;;;;;25.00;37.90;;;;;;5068944;28;19924;-71
2022/05/06 01:49:40;;;;;;;;;;;25.00;38.00;;;;;;5069144;28;20321;-71
2022/05/06 01:52:08;;;;;;;;;;;25.00;37.90;;;;;;5066948;28;20365;-71
2022/05/06 01:54:35;;;;;;;;;;;25.00;37.90;;;;;;5066395;28;20320;-71
2022/05/06 01:57:02;;;;;;;;;;;24.90;37.90;;;;;;5068842;28;20002;-71
2022/05/06 01:59:29;;;;;;;;;;;25.00;38.00;;;;;;5069255;28;19924;-71
2022/05/06 02:01:56;;;;;;;;;;;25.00;38.00;;;;;;5068715;28;19970;-71
2022/05/06 02:07:10;;;;;;;;;;;24.90;38.00;;;;;;5067867;28;19925;-71
2022/05/06 02:09:37;;;;;;;;;;;25.00;38.00;;;;;;5069683;28;19993;-71
2022/05/06 02:12:04;;;;;;;;;;;25.00;38.00;;;;;;5064842;28;19970;-72
2022/05/06 02:14:31;;;;;;;;;;;24.90;38.00;;;;;;5069139;28;19985;-71
2022/05/06 02:16:58;;;;;;;;;;;24.90;38.00;;;;;;5067077;28;19970;-71
2022/05/06 02:19:26;;;;;;;;;;;24.90;38.00;;;;;;5069795;28;19928;-71
2022/05/06 02:21:53;;;;;;;;;;;24.90;38.00;;;;;;5066807;28;19928;-72
2022/05/06 02:24:20;;;;;;;;;;;24.90;38.00;;;;;;5065718;28;19936;-71
2022/05/06 02:26:47;;;;;;;;;;;24.90;38.00;;;;;;5069513;28;20355;-71
2022/05/06 02:29:14;;;;;;;;;;;24.90;38.00;;;;;;5070645;28;19925;-71
2022/05/06 02:34:28;;;;;;;;;;;24.90;38.00;;;;;;5072722;28;19924;-71
2022/05/06 02:36:55;;;;;;;;;;;24.90;38.00;;;;;;5069627;28;19978;-72
2022/05/06 02:39:22;;;;;;;;;;;24.90;38.00;;;;;;5068350;28;19924;-71
2022/05/06 02:41:49;;;;;;;;;;;24.90;38.00;;;;;;5072300;28;19928;-71
2022/05/06 02:44:17;;;;;;;;;;;24.90;38.10;;;;;;5068489;28;19925;-71
2022/05/06 02:46:44;;;;;;;;;;;24.90;38.10;;;;;;5068631;28;19993;-71
2022/05/06 02:49:11;;;;;;;;;;;24.90;38.10;;;;;;5071632;28;19929;-71
2022/05/06 02:51:39;;;;;;;;;;;24.90;38.10;;;;;;5070779;28;19925;-71
2022/05/06 02:54:07;;;;;;;;;;;24.90;38.10;;;;;;5072557;28;19978;-71
2022/05/06 02:56:34;;;;;;;;;;;24.90;38.10;;;;;;5070814;28;19958;-71
2022/05/06 02:59:01;;;;;;;;;;;24.90;38.10;;;;;;5072248;28;20412;-71
2022/05/06 03:01:28;;;;;;;;;;;24.90;38.10;;;;;;5070678;28;20228;-71
2022/05/06 03:03:55;;;;;;;;;;;24.90;38.10;;;;;;5071807;28;20023;-71
2022/05/06 03:06:22;;;;;;;;;;;24.90;38.10;;;;;;5069774;28;19925;-71
2022/05/06 03:08:49;;;;;;;;;;;24.90;38.10;;;;;;5071609;28;19986;-71
2022/05/06 03:11:16;;;;;;;;;;;24.90;38.10;;;;;;5071706;28;19982;-71
2022/05/06 03:13:44;;;;;;;;;;;24.90;38.10;;;;;;5070192;28;19925;-71
2022/05/06 03:16:11;;;;;;;;;;;24.90;38.10;;;;;;5061230;28;19929;-71
2022/05/06 03:18:38;;;;;;;;;;;24.90;38.10;;;;;;5051971;28;19925;-71
2022/05/06 03:21:05;;;;;;;;;;;24.90;38.10;;;;;;5068811;28;19985;-70
2022/05/06 03:23:33;;;;;;;;;;;24.90;38.10;;;;;;5071853;28;20360;-71
2022/05/06 03:26:00;;;;;;;;;;;24.90;38.10;;;;;;5071948;28;19950;-71
2022/05/06 03:28:27;;;;;;;;;;;24.90;38.10;;;;;;5071714;28;20380;-70
2022/05/06 03:30:54;;;;;;;;;;;24.90;38.10;;;;;;5070189;28;20300;-71
2022/05/06 03:33:21;;;;;;;;;;;24.90;38.10;;;;;;5068712;28;19925;-71
2022/05/06 03:35:48;;;;;;;;;;;24.90;38.10;;;;;;5070878;28;19935;-70
2022/05/06 03:38:15;;;;;;;;;;;24.90;38.10;;;;;;5070041;28;19951;-71
2022/05/06 03:40:42;;;;;;;;;;;24.90;38.10;;;;;;5069723;28;19924;-71
2022/05/06 03:43:10;;;;;;;;;;;24.90;38.10;;;;;;5069258;28;19977;-71
2022/05/06 03:45:39;;;;;;;;;;;24.90;38.10;;;;;;5069221;28;19977;-71
2022/05/06 03:48:06;;;;;;;;;;;24.90;38.10;;;;;;5065019;28;20072;-70
2022/05/06 03:53:20;;;;;;;;;;;24.90;38.70;;;;;;5070805;28;20431;-70
2022/05/06 03:55:47;;;;;;;;;;;24.90;38.10;;;;;;5069319;28;20448;-71
2022/05/06 03:58:14;;;;;;;;;;;24.90;38.10;;;;;;5069362;28;20417;-70
2022/05/06 04:00:41;;;;;;;;;;;24.90;38.10;;;;;;5071219;28;19925;-70
2022/05/06 04:03:08;;;;;;;;;;;24.90;38.10;;;;;;5071190;28;19951;-70
2022/05/06 04:05:35;;;;;;;;;;;24.90;38.10;;;;;;5069233;28;19970;-70
2022/05/06 04:08:02;;;;;;;;;;;24.90;38.10;;;;;;5067997;28;19936;-70
2022/05/06 04:10:30;;;;;;;;;;;24.90;38.10;;;;;;5070837;28;20384;-70
2022/05/06 04:12:57;;;;;;;;;;;24.90;38.10;;;;;;5070749;28;19924;-71
2022/05/06 04:15:24;;;;;;;;;;;24.90;38.10;;;;;;5071288;28;19928;-70
2022/05/06 04:17:51;;;;;;;;;;;24.90;38.10;;;;;;5065577;28;19929;-70
2022/05/06 04:25:52;;;;;;;;;;;24.90;38.10;;;;;;5073485;28;19990;-70
2022/05/06 04:28:19;;;;;;;;;;;24.90;38.10;;;;;;5072524;28;19981;-70
2022/05/06 04:30:46;;;;;;;;;;;24.90;38.10;;;;;;5068788;28;19928;-70
2022/05/06 04:33:13;;;;;;;;;;;24.90;38.10;;;;;;5068238;28;20292;-71
2022/05/06 04:35:40;;;;;;;;;;;24.90;38.10;;;;;;5068123;28;19928;-71
2022/05/06 04:38:07;;;;;;;;;;;24.90;38.10;;;;;;5069662;28;19935;-70
2022/05/06 04:40:34;;;;;;;;;;;25.00;38.10;;;;;;5065902;28;19947;-70
2022/05/06 04:43:01;;;;;;;;;;;25.00;38.10;;;;;;5069338;28;20250;-70
2022/05/06 04:45:29;;;;;;;;;;;24.90;38.00;;;;;;5069864;28;19928;-71
2022/05/06 04:47:56;;;;;;;;;;;25.00;38.00;;;;;;5065274;28;19920;-70
2022/05/06 04:50:23;;;;;;;;;;;25.00;38.00;;;;;;5073228;28;19924;-67
2022/05/06 04:56:22;;;;;;;;;;;25.00;38.00;;;;;;5073896;28;20011;-72
2022/05/06 04:58:49;;;;;;;;;;;25.00;37.90;;;;;;5077290;28;19924;-72
2022/05/06 05:01:16;;;;;;;;;;;25.10;38.00;;;;;;5072603;28;19921;-69
2022/05/06 05:03:43;;;;;;;;;;;25.10;37.90;;;;;;5075868;28;20399;-72
2022/05/06 05:10:14;;;;;;;;;;;25.10;37.90;;;;;;5074111;28;20487;-72
2022/05/06 05:12:41;;;;;;;;;;;25.10;37.90;;;;;;5066040;28;19920;-70
2022/05/06 05:15:08;;;;;;;;;;;25.10;37.90;;;;;;5072842;28;19978;-72
2022/05/06 05:17:35;;;;;;;;;;;25.20;38.10;;;;;;5066316;28;19920;-68
2022/05/06 05:23:23;;;;;;;;;;;25.30;38.30;;;;;;5051885;28;19921;-73
2022/05/06 05:25:59;;;;;;;;;;;25.30;38.40;;;;;;5044432;28;20050;-74
2022/05/06 05:31:49;;;;;;;;;;;25.40;38.20;;;;;;5057085;22;19986;-71
2022/05/06 05:41:15;;;;;;;;;;;25.60;38.20;;;;;;5078707;28;20342;-74
2022/05/06 05:50:21;;;;;;;;;;;25.80;37.80;;;;;;5165867;23;20422;-76
2022/05/06 05:52:48;;;;;;;;;;;25.80;38.00;;;;;;5095953;28;19935;-74
2022/05/06 05:55:17;;;;;;;;;;;25.80;38.00;;;;;;5112076;28;19928;-71
2022/05/06 06:01:18;;;;;;;;;;;25.80;38.40;;;;;;6002119;22;19918;-73
2022/05/06 06:03:45;;;;;;;;;;;25.80;38.30;;;;;;5065230;28;20027;-72
2022/05/06 06:06:12;;;;;;;;;;;25.90;38.30;;;;;;5073793;28;19924;-73
2022/05/06 06:09:14;;;;;;;;;;;25.80;38.10;;;;;;5065199;28;19921;-71
2022/05/06 06:11:42;;;;;;;;;;;25.90;38.30;;;;;;5061343;28;19925;-71
2022/05/06 06:14:09;;;;;;;;;;;25.90;38.80;;;;;;5058578;28;20031;-74
2022/05/06 06:16:36;;;;;;;;;;;26.00;38.90;;;;;;5059081;28;20389;-71
2022/05/06 06:33:27;;;;;;;;;;;26.30;38.10;;;;;;6176826;22;19907;-72
2022/05/06 06:35:54;;;;;;;;;;;26.40;38.20;;;;;;5048582;28;19925;-73
2022/05/06 06:38:21;;;;;;;;;;;26.50;38.10;;;;;;5098332;28;19953;-73
2022/05/06 06:40:48;;;;;;;;;;;26.50;38.30;;;;;;5072503;28;19932;-72
2022/05/06 06:43:15;;;;;;;;;;;26.50;38.30;;;;;;5058328;28;19925;-71
2022/05/06 06:45:42;;;;;;;;;;;26.60;38.30;;;;;;5058530;28;19924;-72
2022/05/06 06:48:09;;;;;;;;;;;26.70;37.90;;;;;;5058455;28;20385;-74
2022/05/06 06:50:38;;;;;;;;;;;26.70;37.80;;;;;;5058203;28;20388;-72
2022/05/06 06:56:28;;;;;;;;;;;26.80;37.80;;;;;;5064837;28;19928;-76
2022/05/06 06:58:55;;;;;;;;;;;26.90;37.60;;;;;;5057835;28;19978;-71
2022/05/06 07:01:22;;;;;;;;;;;26.90;37.30;;;;;;5058491;28;19925;-68
2022/05/06 07:03:58;;;;;;;;;;;26.90;37.00;;;;;;5061312;28;19933;-73
2022/05/06 07:12:05;;;;;;;;;;;27.10;36.80;;;;;;5066540;28;19925;-70
2022/05/06 07:14:35;;;;;;;;;;;27.20;36.90;;;;;;5060729;28;19960;-72
2022/05/06 07:20:34;;;;;;;;;;;27.20;36.90;;;;;;5087030;23;19924;-73
2022/05/06 07:23:24;;;;;;;;;;;27.30;36.60;;;;;;5080945;28;19924;-75
2022/05/06 07:25:54;;;;;;;;;;;27.30;36.60;;;;;;5094096;28;19957;-72
2022/05/06 07:35:15;;;;;;;;;;;27.50;36.90;;;;;;5080907;28;19931;-73
2022/05/06 07:37:56;;;;;;;;;;;27.60;36.90;;;;;;5068032;28;19921;-70
2022/05/06 07:43:44;;;;;;;;;;;27.60;37.10;;;;;;5088427;28;19974;-73
2022/05/06 07:49:43;;;;;;;;;;;27.40;37.40;;;;;;5082606;28;19919;-74
2022/05/06 07:52:12;;;;;;;;;;;27.40;37.20;;;;;;5088658;28;19974;-76
2022/05/06 07:54:39;;;;;;;;;;;27.40;36.90;;;;;;5092428;28;20287;-72
2022/05/06 08:12:31;;;;;;;;;;;27.40;36.60;;;;;;5080289;28;19971;-74
2022/05/06 08:14:58;;;;;;;;;;;27.50;36.90;;;;;;5062774;28;20379;-66
2022/05/06 08:17:25;;;;;;;;;;;27.50;37.00;;;;;;5082859;28;20653;-72
2022/05/06 08:20:03;;;;;;;;;;;27.60;37.30;;;;;;5085246;28;19935;-76
2022/05/06 08:22:30;;;;;;;;;;;27.50;37.60;;;;;;5096621;28;19943;-70
2022/05/06 08:24:57;;;;;;;;;;;27.60;37.80;;;;;;5074660;28;20265;-69
2022/05/06 08:34:56;;;;;;;;;;;27.70;37.30;;;;;;5083459;28;19924;-77
2022/05/06 08:50:53;;;;;;;;;;;27.70;37.30;;;;;;5065426;28;19931;-75
2022/05/06 08:53:21;;;;;;;;;;;27.80;37.30;;;;;;5076121;28;19975;-67
2022/05/06 08:56:14;;;;;;;;;;;27.80;37.30;;;;;;5086076;28;19974;-65
2022/05/06 08:58:42;;;;;;;;;;;27.80;36.90;;;;;;5092440;28;19924;-67
2022/05/06 09:01:10;;;;;;;;;;;27.90;37.10;;;;;;5089083;28;19931;-64
2022/05/06 09:04:20;;;;;;;;;;;28.00;37.20;;;;;;5095614;28;19931;-65
2022/05/06 09:10:15;;;;;;;;;;;28.00;37.00;;;;;;5119985;22;19924;-66
2022/05/06 09:12:44;;;;;;;;;;;28.00;36.90;;;;;;5053455;28;19986;-68
2022/05/06 09:20:36;;;;;;;;;;;28.00;37.00;;;;;;5790078;22;19936;-69
2022/05/06 09:23:24;;;;;;;;;;;27.90;36.90;;;;;;5046381;28;19932;-67
2022/05/06 09:32:55;;;;;;;;;;;28.00;37.10;;;;;;5054333;28;20363;-67
2022/05/06 09:35:25;;;;;;;;;;;28.00;37.10;;;;;;5068515;28;19920;-61
2022/05/06 09:38:03;;;;;;;;;;;28.10;37.10;;;;;;5070599;28;19924;-70
2022/05/06 09:40:31;;;;;;;;;;;28.10;37.10;;;;;;5110008;23;19924;-70
2022/05/06 09:42:59;;;;;;;;;;;28.10;36.90;;;;;;5095716;28;19924;-71
2022/05/06 09:45:31;;;;;;;;;;;28.10;36.80;;;;;;5099106;28;20017;-70
2022/05/06 09:48:08;;;;;;;;;;;28.10;36.80;;;;;;5108898;28;19924;-70
2022/05/06 09:53:57;;;;;;;;;;;28.10;36.80;;;;;;5116053;28;20019;-73
2022/05/06 09:56:24;;;;;;;;;;;28.10;36.80;;;;;;5106228;28;19928;-67
2022/05/06 09:58:52;;;;;;;;;;;28.10;36.80;;;;;;5115445;28;19924;-66
2022/05/06 10:01:19;;;;;;;;;;;28.10;36.70;;;;;;5080548;28;19927;-66
2022/05/06 10:03:46;;;;;;;;;;;28.20;36.70;;;;;;5100008;28;20299;-70
2022/05/06 10:06:13;;;;;;;;;;;28.20;36.50;;;;;;5097204;28;20300;-69
2022/05/06 10:08:44;;;;;;;;;;;28.20;36.40;;;;;;5107583;28;19924;-71
2022/05/06 10:11:14;;;;;;;;;;;28.20;36.50;;;;;;5118168;28;19930;-67
2022/05/06 10:13:44;;;;;;;;;;;28.30;36.40;;;;;;5112821;28;19924;-74
2022/05/06 10:19:46;;;;;;;;;;;28.40;36.30;;;;;;5100432;28;19938;-75
2022/05/06 10:23:02;;;;;;;;;;;28.50;36.30;;;;;;5101048;28;20392;-64
2022/05/06 10:26:07;;;;;;;;;;;28.50;36.40;;;;;;5114300;28;19928;-76
2022/05/06 10:42:06;;;;;;;;;;;28.70;36.30;;;;;;5106700;28;19940;-71
2022/05/06 10:44:38;;;;;;;;;;;28.60;36.30;;;;;;5098914;28;19935;-68
2022/05/06 10:50:13;;;;;;;;;;;28.70;36.50;;;;;;5095127;28;19923;-76
2022/05/06 10:53:15;;;;;;;;;;;28.60;36.40;;;;;;5097740;28;20427;-72
2022/05/06 10:55:42;;;;;;;;;;;28.60;36.60;;;;;;5110604;28;19932;-74
2022/05/06 11:08:38;;;;;;;;;;;28.40;36.80;;;;;;5110773;28;19938;-73
2022/05/06 11:11:16;;;;;;;;;;;28.40;37.10;;;;;;5119021;28;19931;-70
2022/05/06 11:13:47;;;;;;;;;;;28.30;37.00;;;;;;5118271;28;20693;-77
2022/05/06 11:16:17;;;;;;;;;;;28.30;37.00;;;;;;5101530;28;19920;-73
2022/05/06 11:18:45;;;;;;;;;;;28.30;37.10;;;;;;5099625;28;20429;-70
2022/05/06 11:21:20;;;;;;;;;;;28.30;37.60;;;;;;5113520;28;20018;-72
2022/05/06 11:23:47;;;;;;;;;;;28.30;37.00;;;;;;5114964;28;19919;-68
2022/05/06 11:40:37;;;;;;;;;;;28.30;37.30;;;;;;5063793;23;19928;-65
2022/05/06 11:47:27;;;;;;;;;;;28.40;37.60;;;;;;5018067;28;20068;-69
2022/05/06 11:53:27;;;;;;;;;;;28.40;37.60;;;;;;5024807;28;19948;-70
2022/05/06 11:55:55;;;;;;;;;;;28.50;37.30;;;;;;5035911;28;20400;-70
2022/05/06 11:58:45;;;;;;;;;;;28.50;37.40;;;;;;5029876;28;19971;-68
2022/05/06 12:01:23;;;;;;;;;;;28.50;37.30;;;;;;5024057;28;20321;-73
2022/05/06 12:03:50;;;;;;;;;;;28.50;37.30;;;;;;5022511;28;20023;-71
2022/05/06 12:06:35;;;;;;;;;;;28.50;37.80;;;;;;5021271;28;19929;-69
2022/05/06 12:09:13;;;;;;;;;;;28.50;37.00;;;;;;5025324;28;19925;-72
2022/05/06 12:11:41;;;;;;;;;;;28.50;37.00;;;;;;5020646;28;20329;-74
2022/05/06 12:14:09;;;;;;;;;;;28.50;36.80;;;;;;5017672;28;19926;-74
2022/05/06 12:16:36;;;;;;;;;;;28.50;36.80;;;;;;5000368;28;20381;-75
2022/05/06 12:19:03;;;;;;;;;;;28.50;36.70;;;;;;5017788;28;19973;-74
2022/05/06 12:21:32;;;;;;;;;;;28.50;36.60;;;;;;5018131;28;19926;-74
2022/05/06 12:24:00;;;;;;;;;;;28.40;36.50;;;;;;5017630;28;19929;-71
2022/05/06 12:26:30;;;;;;;;;;;28.40;36.50;;;;;;5017688;28;19980;-71
2022/05/06 12:28:58;;;;;;;;;;;28.50;36.60;;;;;;5017477;28;20373;-72
2022/05/06 12:31:26;;;;;;;;;;;28.50;36.50;;;;;;5017468;28;19926;-69
2022/05/06 12:33:59;;;;;;;;;;;28.50;36.50;;;;;;5017591;28;19926;-73
2022/05/06 12:36:28;;;;;;;;;;;28.50;36.40;;;;;;5019467;28;19934;-73
2022/05/06 12:38:55;;;;;;;;;;;28.40;36.50;;;;;;5019099;28;19925;-75
2022/05/06 12:41:23;;;;;;;;;;;28.50;36.80;;;;;;5019144;28;19980;-75
2022/05/06 12:43:51;;;;;;;;;;;28.50;36.90;;;;;;5018719;28;19996;-70
2022/05/06 12:46:29;;;;;;;;;;;28.40;37.10;;;;;;5019639;28;19980;-69
2022/05/06 12:51:45;;;;;;;;;;;28.40;37.40;;;;;;5018851;28;19929;-69
2022/05/06 12:54:13;;;;;;;;;;;28.40;37.40;;;;;;5018447;28;20389;-69
2022/05/06 12:56:40;;;;;;;;;;;28.40;37.40;;;;;;5018069;28;20365;-70
2022/05/06 12:59:07;;;;;;;;;;;28.40;37.20;;;;;;5018203;28;19933;-73
2022/05/06 13:01:35;;;;;;;;;;;28.40;37.20;;;;;;5017851;28;19956;-70
2022/05/06 13:04:03;;;;;;;;;;;28.30;37.40;;;;;;5017860;28;19975;-71
2022/05/06 13:06:31;;;;;;;;;;;28.30;37.80;;;;;;5017731;28;19976;-71
2022/05/06 13:08:58;;;;;;;;;;;28.30;37.60;;;;;;5017950;28;19925;-71
2022/05/06 13:11:26;;;;;;;;;;;28.30;37.80;;;;;;5017837;28;19948;-71
2022/05/06 13:13:54;;;;;;;;;;;28.30;39.20;;;;;;5017176;28;19972;-71
2022/05/06 13:16:21;;;;;;;;;;;28.30;38.70;;;;;;5017729;28;19925;-71
2022/05/06 13:18:50;;;;;;;;;;;28.30;37.90;;;;;;5017660;28;19925;-71
2022/05/06 13:21:17;;;;;;;;;;;28.20;37.40;;;;;;5017554;28;19933;-71
2022/05/06 13:23:44;;;;;;;;;;;28.20;37.10;;;;;;5017930;28;19925;-71
2022/05/06 13:26:11;;;;;;;;;;;28.20;37.00;;;;;;5017411;28;19926;-71
2022/05/06 13:28:38;;;;;;;;;;;28.20;36.90;;;;;;5017341;28;20424;-71
2022/05/06 13:31:05;;;;;;;;;;;28.10;36.80;;;;;;5017492;28;19929;-71
2022/05/06 13:33:33;;;;;;;;;;;28.10;36.70;;;;;;5017542;28;20369;-71
2022/05/06 13:36:00;;;;;;;;;;;28.10;36.60;;;;;;5017277;28;19933;-71
2022/05/06 13:38:27;;;;;;;;;;;28.10;36.60;;;;;;5017226;28;20428;-70
2022/05/06 13:40:54;;;;;;;;;;;28.10;36.60;;;;;;5000060;28;19933;-71
2022/05/06 13:43:21;;;;;;;;;;;28.10;36.70;;;;;;5017502;28;20296;-71
2022/05/06 13:45:48;;;;;;;;;;;28.10;36.70;;;;;;4999798;28;19933;-71
2022/05/06 13:48:15;;;;;;;;;;;28.10;36.70;;;;;;5017265;28;20365;-71
2022/05/06 13:50:42;;;;;;;;;;;28.10;36.80;;;;;;5017078;28;19980;-71
2022/05/06 13:53:09;;;;;;;;;;;28.00;36.80;;;;;;5017322;28;19925;-70
2022/05/06 14:01:10;;;;;;;;;;;27.90;37.00;;;;;;5017274;28;19984;-71
2022/05/06 14:03:37;;;;;;;;;;;28.00;37.20;;;;;;5017401;28;19932;-71
2022/05/06 14:06:04;;;;;;;;;;;28.00;37.40;;;;;;5016929;28;20366;-70
2022/05/06 14:08:31;;;;;;;;;;;27.90;37.40;;;;;;5017067;28;19969;-71
2022/05/06 14:10:58;;;;;;;;;;;27.90;37.40;;;;;;5016796;28;19926;-71
2022/05/06 14:13:25;;;;;;;;;;;28.00;37.40;;;;;;5017359;28;19925;-70
2022/05/06 14:15:53;;;;;;;;;;;27.90;37.30;;;;;;5016583;28;20297;-71
2022/05/06 14:18:20;;;;;;;;;;;28.00;37.30;;;;;;5017056;28;19929;-71
2022/05/06 14:20:47;;;;;;;;;;;28.00;37.20;;;;;;5016777;28;19926;-71
2022/05/06 14:23:14;;;;;;;;;;;28.00;37.20;;;;;;5017172;28;19980;-71
2022/05/06 14:25:42;;;;;;;;;;;28.00;37.10;;;;;;5018998;28;19926;-71
2022/05/06 14:28:09;;;;;;;;;;;28.00;37.10;;;;;;5020776;28;19980;-71
2022/05/06 14:30:36;;;;;;;;;;;28.00;37.00;;;;;;5020649;28;19925;-70
2022/05/06 14:33:03;;;;;;;;;;;27.90;36.90;;;;;;5003376;28;19929;-71
2022/05/06 14:35:33;;;;;;;;;;;28.00;37.00;;;;;;5020236;28;20334;-71
2022/05/06 14:38:00;;;;;;;;;;;28.00;37.00;;;;;;5020636;28;19953;-71
2022/05/06 14:40:28;;;;;;;;;;;27.90;37.00;;;;;;5020177;28;19996;-71
2022/05/06 14:42:56;;;;;;;;;;;27.90;37.00;;;;;;5020212;28;19972;-71
2022/05/06 14:45:24;;;;;;;;;;;27.90;37.00;;;;;;5020353;28;19926;-71
2022/05/06 14:47:51;;;;;;;;;;;27.90;37.00;;;;;;5020115;28;20433;-71
2022/05/06 14:50:18;;;;;;;;;;;27.90;37.00;;;;;;5020014;28;19929;-71
2022/05/06 14:52:45;;;;;;;;;;;27.90;37.00;;;;;;5002809;28;19965;-70
2022/05/06 14:55:12;;;;;;;;;;;27.80;37.00;;;;;;5020041;28;20287;-71
2022/05/06 14:57:39;;;;;;;;;;;27.80;36.90;;;;;;5020171;28;19973;-71
2022/05/06 15:00:07;;;;;;;;;;;27.80;37.00;;;;;;5019724;28;19925;-72
2022/05/06 15:02:35;;;;;;;;;;;27.80;36.90;;;;;;5019983;28;19925;-71
2022/05/06 15:05:02;;;;;;;;;;;27.80;37.00;;;;;;5020055;28;19925;-70
2022/05/06 15:07:29;;;;;;;;;;;27.80;36.90;;;;;;5020081;28;19929;-71
2022/05/06 15:09:57;;;;;;;;;;;27.80;36.90;;;;;;5019719;28;19925;-70
2022/05/06 15:12:24;;;;;;;;;;;27.80;37.00;;;;;;5019646;28;19929;-71
2022/05/06 15:14:51;;;;;;;;;;;27.80;36.90;;;;;;5020093;28;19949;-70
2022/05/06 15:17:18;;;;;;;;;;;27.80;37.00;;;;;;5034610;28;20016;-71
2022/05/06 15:19:46;;;;;;;;;;;27.80;36.90;;;;;;5019613;28;19926;-71
2022/05/06 15:22:14;;;;;;;;;;;27.80;37.00;;;;;;5019470;28;20389;-71
2022/05/06 15:24:41;;;;;;;;;;;27.80;37.00;;;;;;5019759;28;19926;-71
2022/05/06 15:27:08;;;;;;;;;;;27.80;37.00;;;;;;5019377;28;19926;-71
2022/05/06 15:29:36;;;;;;;;;;;27.80;37.00;;;;;;5019563;28;19929;-71
2022/05/06 15:32:03;;;;;;;;;;;27.70;37.10;;;;;;5019483;28;19932;-71
2022/05/06 15:34:30;;;;;;;;;;;27.70;37.10;;;;;;5019187;28;19930;-70
2022/05/06 15:36:58;;;;;;;;;;;27.70;37.20;;;;;;5019174;28;19926;-71
2022/05/06 15:39:25;;;;;;;;;;;27.70;37.20;;;;;;5019025;28;19932;-71
2022/05/06 15:41:53;;;;;;;;;;;27.60;37.20;;;;;;5019570;28;19925;-70
2022/05/06 15:44:19;;;;;;;;;;;27.60;37.30;;;;;;5019059;28;19926;-71
2022/05/06 15:46:46;;;;;;;;;;;27.60;37.30;;;;;;5019846;28;20321;-71
2022/05/06 15:49:13;;;;;;;;;;;27.60;37.30;;;;;;5018937;28;19956;-71
2022/05/06 15:51:42;;;;;;;;;;;27.50;37.30;;;;;;5019228;28;20312;-70
2022/05/06 15:54:09;;;;;;;;;;;27.50;37.30;;;;;;5018845;28;19929;-71
2022/05/06 15:56:36;;;;;;;;;;;27.50;37.40;;;;;;5018800;28;19972;-70
2022/05/06 15:59:04;;;;;;;;;;;27.50;37.40;;;;;;5018775;28;19925;-71
2022/05/06 16:01:31;;;;;;;;;;;27.50;37.50;;;;;;5018797;28;20340;-70
2022/05/06 16:03:58;;;;;;;;;;;27.40;37.40;;;;;;5019038;28;19925;-70
2022/05/06 16:06:25;;;;;;;;;;;27.50;37.50;;;;;;5019025;28;19932;-70
2022/05/06 16:08:53;;;;;;;;;;;27.50;37.50;;;;;;5018946;28;19926;-70
2022/05/06 16:11:20;;;;;;;;;;;27.50;37.50;;;;;;5018511;28;19931;-71
2022/05/06 16:13:47;;;;;;;;;;;27.50;37.40;;;;;;5018820;28;19926;-71
2022/05/06 16:16:14;;;;;;;;;;;27.50;37.40;;;;;;5018337;28;20366;-71
2022/05/06 16:18:41;;;;;;;;;;;27.50;37.50;;;;;;5018603;28;19972;-71
2022/05/06 16:21:08;;;;;;;;;;;27.50;37.50;;;;;;5018494;28;19925;-71
2022/05/06 16:23:35;;;;;;;;;;;27.40;37.60;;;;;;5018602;28;19925;-71
2022/05/06 16:26:06;;;;;;;;;;;27.40;37.60;;;;;;5018618;28;20008;-71
2022/05/06 16:28:33;;;;;;;;;;;27.40;37.90;;;;;;5018311;28;19929;-71
2022/05/06 16:31:01;;;;;;;;;;;27.40;37.70;;;;;;5018533;28;19930;-71
2022/05/06 16:33:28;;;;;;;;;;;27.40;37.70;;;;;;5018698;28;20336;-71
2022/05/06 16:38:48;;;;;;;;;;;27.30;37.70;;;;;;5017950;28;19932;-71
2022/05/06 16:41:15;;;;;;;;;;;27.30;37.80;;;;;;5018421;28;19926;-71
2022/05/06 16:43:43;;;;;;;;;;;27.30;37.90;;;;;;5000661;28;19925;-71
2022/05/06 16:46:10;;;;;;;;;;;27.30;37.90;;;;;;5017961;28;20106;-71
2022/05/06 16:48:37;;;;;;;;;;;27.20;37.80;;;;;;5017617;28;19936;-71
2022/05/06 16:51:04;;;;;;;;;;;27.20;37.80;;;;;;5017912;28;19972;-71
2022/05/06 16:53:32;;;;;;;;;;;27.20;37.90;;;;;;5018287;28;19929;-70
2022/05/06 16:56:00;;;;;;;;;;;27.20;37.90;;;;;;5017985;28;19926;-71
2022/05/06 16:58:27;;;;;;;;;;;27.20;37.90;;;;;;5017977;28;20020;-70
2022/05/06 17:00:54;;;;;;;;;;;27.20;38.00;;;;;;5017906;28;19926;-70
2022/05/06 17:03:21;;;;;;;;;;;27.10;38.00;;;;;;5017943;28;19929;-71
2022/05/06 17:05:50;;;;;;;;;;;27.10;38.00;;;;;;5000530;28;20263;-71
2022/05/06 17:08:17;;;;;;;;;;;27.10;38.00;;;;;;5017645;28;20024;-71
2022/05/06 17:10:44;;;;;;;;;;;27.10;38.10;;;;;;5017782;28;19929;-70
2022/05/06 17:13:11;;;;;;;;;;;27.00;38.10;;;;;;5017996;28;19957;-71
2022/05/06 17:15:38;;;;;;;;;;;27.00;38.10;;;;;;5017762;28;20333;-70
2022/05/06 17:18:08;;;;;;;;;;;27.00;38.10;;;;;;5017678;28;19929;-71
2022/05/06 17:20:39;;;;;;;;;;;27.00;38.20;;;;;;5017558;28;20020;-71
2022/05/06 17:23:06;;;;;;;;;;;26.90;38.20;;;;;;5017663;28;19925;-71
2022/05/06 17:25:33;;;;;;;;;;;26.90;38.20;;;;;;5017665;28;19926;-71
2022/05/06 17:28:00;;;;;;;;;;;26.90;38.30;;;;;;4999915;28;19929;-71
2022/05/06 17:30:27;;;;;;;;;;;26.90;38.30;;;;;;5017281;28;19932;-71
2022/05/06 17:32:54;;;;;;;;;;;26.90;38.40;;;;;;5017738;28;19926;-71
2022/05/06 17:35:21;;;;;;;;;;;26.80;38.40;;;;;;5017597;28;19925;-72
2022/05/06 17:37:48;;;;;;;;;;;26.80;38.40;;;;;;5017738;28;19926;-71
2022/05/06 17:40:16;;;;;;;;;;;26.80;38.40;;;;;;5017195;28;20297;-71
2022/05/06 17:42:43;;;;;;;;;;;26.80;38.50;;;;;;5017292;28;20373;-71
2022/05/06 17:45:10;;;;;;;;;;;26.80;38.50;;;;;;5017564;28;20369;-71
2022/05/06 17:47:37;;;;;;;;;;;26.70;38.50;;;;;;5017539;28;19932;-71
2022/05/06 17:50:06;;;;;;;;;;;26.70;38.60;;;;;;5017332;28;19949;-71
2022/05/06 17:52:33;;;;;;;;;;;26.70;38.60;;;;;;5017196;28;19929;-71